sensor_id;sensor_type;location;lat;lon;timestamp;P1;durP1;ratioP1;P2;durP2;ratioP2
10142;SDS011;5112;54.088;13.446;2024-02-28T00:04:56;15.50;;;10.60;;
10142;SDS011;5112;54.088;13.446;2024-02-28T00:14:59;15.13;;;10.53;;
10142;SDS011;5112;54.088;13.446;2024-02-28T00:25:02;13.97;;;10.30;;
10142;SDS011;5112;54.088;13.446;2024-02-28T00:35:06;18.40;;;11.80;;
10142;SDS011;5112;54.088;13.446;2024-02-28T00:45:10;14.47;;;10.80;;
10142;SDS011;5112;54.088;13.446;2024-02-28T00:55:11;15.93;;;11.10;;
10142;SDS011;5112;54.088;13.446;2024-02-28T01:05:14;11.93;;;9.20;;
10142;SDS011;5112;54.088;13.446;2024-02-28T01:15:16;15.37;;;10.50;;
10142;SDS011;5112;54.088;13.446;2024-02-28T01:25:19;13.50;;;10.00;;
10142;SDS011;5112;54.088;13.446;2024-02-28T01:35:21;18.60;;;12.33;;
10142;SDS011;5112;54.088;13.446;2024-02-28T01:45:24;22.90;;;12.87;;
10142;SDS011;5112;54.088;13.446;2024-02-28T01:55:26;20.53;;;12.47;;
10142;SDS011;5112;54.088;13.446;2024-02-28T02:05:29;20.67;;;12.17;;
10142;SDS011;5112;54.088;13.446;2024-02-28T02:15:31;20.67;;;11.70;;
10142;SDS011;5112;54.088;13.446;2024-02-28T02:25:34;18.90;;;11.40;;
10142;SDS011;5112;54.088;13.446;2024-02-28T02:35:43;19.13;;;10.80;;
10142;SDS011;5112;54.088;13.446;2024-02-28T02:45:46;20.23;;;11.17;;
10142;SDS011;5112;54.088;13.446;2024-02-28T02:55:48;16.83;;;10.83;;
10142;SDS011;5112;54.088;13.446;2024-02-28T03:05:51;17.70;;;10.97;;
10142;SDS011;5112;54.088;13.446;2024-02-28T03:15:53;17.77;;;10.33;;
10142;SDS011;5112;54.088;13.446;2024-02-28T03:25:56;17.83;;;10.83;;
10142;SDS011;5112;54.088;13.446;2024-02-28T03:35:57;15.57;;;10.10;;
10142;SDS011;5112;54.088;13.446;2024-02-28T03:46:00;18.63;;;9.90;;
10142;SDS011;5112;54.088;13.446;2024-02-28T03:56:02;17.23;;;9.77;;
10142;SDS011;5112;54.088;13.446;2024-02-28T04:06:06;17.70;;;9.80;;
10142;SDS011;5112;54.088;13.446;2024-02-28T04:16:07;18.40;;;9.57;;
10142;SDS011;5112;54.088;13.446;2024-02-28T04:26:12;17.63;;;8.80;;
10142;SDS011;5112;54.088;13.446;2024-02-28T04:36:13;14.97;;;8.70;;
10142;SDS011;5112;54.088;13.446;2024-02-28T04:46:17;12.90;;;7.33;;
10142;SDS011;5112;54.088;13.446;2024-02-28T04:56:19;10.00;;;5.63;;
10142;SDS011;5112;54.088;13.446;2024-02-28T05:06:22;13.30;;;8.63;;
10142;SDS011;5112;54.088;13.446;2024-02-28T05:16:23;14.00;;;7.50;;
10142;SDS011;5112;54.088;13.446;2024-02-28T05:26:26;17.23;;;7.47;;
10142;SDS011;5112;54.088;13.446;2024-02-28T05:36:29;17.07;;;8.27;;
10142;SDS011;5112;54.088;13.446;2024-02-28T05:46:33;15.17;;;8.53;;
10142;SDS011;5112;54.088;13.446;2024-02-28T05:56:36;14.33;;;7.87;;
10142;SDS011;5112;54.088;13.446;2024-02-28T06:06:39;12.27;;;6.40;;
10142;SDS011;5112;54.088;13.446;2024-02-28T06:16:42;6.97;;;4.73;;
10142;SDS011;5112;54.088;13.446;2024-02-28T06:26:45;8.50;;;5.30;;
10142;SDS011;5112;54.088;13.446;2024-02-28T06:36:47;7.43;;;5.63;;
10142;SDS011;5112;54.088;13.446;2024-02-28T06:46:50;6.97;;;4.47;;
10142;SDS011;5112;54.088;13.446;2024-02-28T06:56:52;7.67;;;4.83;;
10142;SDS011;5112;54.088;13.446;2024-02-28T07:06:55;5.87;;;3.47;;
10142;SDS011;5112;54.088;13.446;2024-02-28T07:16:56;5.67;;;3.77;;
10142;SDS011;5112;54.088;13.446;2024-02-28T07:26:59;7.90;;;3.80;;
10142;SDS011;5112;54.088;13.446;2024-02-28T07:37:01;4.77;;;3.53;;
10142;SDS011;5112;54.088;13.446;2024-02-28T07:47:06;6.23;;;4.17;;
10142;SDS011;5112;54.088;13.446;2024-02-28T07:57:07;5.80;;;3.97;;
10142;SDS011;5112;54.088;13.446;2024-02-28T08:07:11;5.93;;;4.23;;
10142;SDS011;5112;54.088;13.446;2024-02-28T08:17:12;5.03;;;4.13;;
10142;SDS011;5112;54.088;13.446;2024-02-28T08:27:15;6.47;;;4.50;;
10142;SDS011;5112;54.088;13.446;2024-02-28T08:37:17;5.60;;;4.33;;
10142;SDS011;5112;54.088;13.446;2024-02-28T08:47:22;5.50;;;4.53;;
10142;SDS011;5112;54.088;13.446;2024-02-28T08:57:24;6.43;;;4.93;;
10142;SDS011;5112;54.088;13.446;2024-02-28T09:07:27;7.33;;;5.33;;
10142;SDS011;5112;54.088;13.446;2024-02-28T09:17:28;7.73;;;5.37;;
10142;SDS011;5112;54.088;13.446;2024-02-28T09:27:32;6.10;;;4.97;;
10142;SDS011;5112;54.088;13.446;2024-02-28T09:37:34;7.83;;;5.60;;
10142;SDS011;5112;54.088;13.446;2024-02-28T09:47:40;9.07;;;5.53;;
10142;SDS011;5112;54.088;13.446;2024-02-28T09:57:42;8.13;;;5.50;;
10142;SDS011;5112;54.088;13.446;2024-02-28T10:07:49;7.80;;;5.40;;
10142;SDS011;5112;54.088;13.446;2024-02-28T10:17:51;8.70;;;5.20;;
10142;SDS011;5112;54.088;13.446;2024-02-28T10:27:54;8.43;;;5.93;;
10142;SDS011;5112;54.088;13.446;2024-02-28T10:38:00;7.17;;;5.43;;
10142;SDS011;5112;54.088;13.446;2024-02-28T10:48:05;9.03;;;6.07;;
10142;SDS011;5112;54.088;13.446;2024-02-28T10:58:11;6.27;;;5.17;;
10142;SDS011;5112;54.088;13.446;2024-02-28T11:08:21;9.67;;;6.73;;
10142;SDS011;5112;54.088;13.446;2024-02-28T11:18:23;10.37;;;5.87;;
10142;SDS011;5112;54.088;13.446;2024-02-28T11:28:26;9.53;;;6.67;;
10142;SDS011;5112;54.088;13.446;2024-02-28T11:38:28;9.63;;;5.87;;
10142;SDS011;5112;54.088;13.446;2024-02-28T11:48:31;8.67;;;6.30;;
10142;SDS011;5112;54.088;13.446;2024-02-28T11:58:33;8.23;;;6.17;;
10142;SDS011;5112;54.088;13.446;2024-02-28T12:08:36;11.20;;;7.47;;
10142;SDS011;5112;54.088;13.446;2024-02-28T12:18:38;10.47;;;7.67;;
10142;SDS011;5112;54.088;13.446;2024-02-28T12:28:41;9.03;;;6.40;;
10142;SDS011;5112;54.088;13.446;2024-02-28T12:38:42;8.23;;;6.20;;
10142;SDS011;5112;54.088;13.446;2024-02-28T12:48:45;11.20;;;7.47;;
10142;SDS011;5112;54.088;13.446;2024-02-28T12:58:47;10.70;;;7.03;;
10142;SDS011;5112;54.088;13.446;2024-02-28T13:08:50;10.23;;;6.90;;
10142;SDS011;5112;54.088;13.446;2024-02-28T13:18:52;9.53;;;7.07;;
10142;SDS011;5112;54.088;13.446;2024-02-28T13:28:55;10.33;;;8.40;;
10142;SDS011;5112;54.088;13.446;2024-02-28T13:38:57;12.30;;;9.13;;
10142;SDS011;5112;54.088;13.446;2024-02-28T13:49:00;11.63;;;9.10;;
10142;SDS011;5112;54.088;13.446;2024-02-28T13:59:03;11.00;;;8.93;;
10142;SDS011;5112;54.088;13.446;2024-02-28T14:09:07;11.73;;;9.30;;
10142;SDS011;5112;54.088;13.446;2024-02-28T14:19:09;13.67;;;10.27;;
10142;SDS011;5112;54.088;13.446;2024-02-28T14:29:13;12.60;;;10.20;;
10142;SDS011;5112;54.088;13.446;2024-02-28T14:39:16;13.80;;;10.80;;
10142;SDS011;5112;54.088;13.446;2024-02-28T14:49:19;15.87;;;11.87;;
10142;SDS011;5112;54.088;13.446;2024-02-28T14:59:20;16.03;;;12.00;;
10142;SDS011;5112;54.088;13.446;2024-02-28T15:09:25;14.27;;;10.87;;
10142;SDS011;5112;54.088;13.446;2024-02-28T15:19:26;16.07;;;12.63;;
10142;SDS011;5112;54.088;13.446;2024-02-28T15:29:29;15.90;;;11.67;;
10142;SDS011;5112;54.088;13.446;2024-02-28T15:39:31;18.07;;;12.83;;
10142;SDS011;5112;54.088;13.446;2024-02-28T15:49:34;15.90;;;12.33;;
10142;SDS011;5112;54.088;13.446;2024-02-28T15:59:36;16.93;;;12.30;;
10142;SDS011;5112;54.088;13.446;2024-02-28T16:09:39;16.53;;;11.83;;
10142;SDS011;5112;54.088;13.446;2024-02-28T16:19:41;18.33;;;12.63;;
10142;SDS011;5112;54.088;13.446;2024-02-28T16:29:44;20.13;;;13.03;;
10142;SDS011;5112;54.088;13.446;2024-02-28T16:39:46;17.33;;;12.43;;
10142;SDS011;5112;54.088;13.446;2024-02-28T16:49:49;18.03;;;12.70;;
10142;SDS011;5112;54.088;13.446;2024-02-28T16:59:50;18.93;;;11.73;;
10142;SDS011;5112;54.088;13.446;2024-02-28T17:09:53;17.30;;;12.57;;
10142;SDS011;5112;54.088;13.446;2024-02-28T17:19:55;17.53;;;11.37;;
10142;SDS011;5112;54.088;13.446;2024-02-28T17:29:59;14.13;;;11.13;;
10142;SDS011;5112;54.088;13.446;2024-02-28T17:40:00;17.70;;;12.77;;
10142;SDS011;5112;54.088;13.446;2024-02-28T17:50:04;19.00;;;12.70;;
10142;SDS011;5112;54.088;13.446;2024-02-28T18:00:07;17.97;;;13.40;;
10142;SDS011;5112;54.088;13.446;2024-02-28T18:10:14;18.50;;;12.30;;
10142;SDS011;5112;54.088;13.446;2024-02-28T18:20:16;16.67;;;11.73;;
10142;SDS011;5112;54.088;13.446;2024-02-28T18:30:19;17.70;;;12.33;;
10142;SDS011;5112;54.088;13.446;2024-02-28T18:40:24;17.20;;;11.70;;
10142;SDS011;5112;54.088;13.446;2024-02-28T18:50:28;18.27;;;12.53;;
10142;SDS011;5112;54.088;13.446;2024-02-28T19:00:30;18.50;;;12.47;;
10142;SDS011;5112;54.088;13.446;2024-02-28T19:10:33;17.53;;;12.67;;
10142;SDS011;5112;54.088;13.446;2024-02-28T19:20:35;16.93;;;11.90;;
10142;SDS011;5112;54.088;13.446;2024-02-28T19:30:39;16.40;;;11.80;;
10142;SDS011;5112;54.088;13.446;2024-02-28T19:40:41;16.87;;;11.37;;
10142;SDS011;5112;54.088;13.446;2024-02-28T19:50:44;17.63;;;12.20;;
10142;SDS011;5112;54.088;13.446;2024-02-28T20:00:46;15.70;;;11.43;;
10142;SDS011;5112;54.088;13.446;2024-02-28T20:10:49;15.73;;;12.33;;
10142;SDS011;5112;54.088;13.446;2024-02-28T20:20:50;16.47;;;11.67;;
10142;SDS011;5112;54.088;13.446;2024-02-28T20:30:53;16.40;;;11.67;;
10142;SDS011;5112;54.088;13.446;2024-02-28T20:40:55;15.63;;;11.43;;
10142;SDS011;5112;54.088;13.446;2024-02-28T20:50:59;15.17;;;10.87;;
10142;SDS011;5112;54.088;13.446;2024-02-28T21:01:01;15.30;;;10.57;;
10142;SDS011;5112;54.088;13.446;2024-02-28T21:11:05;12.07;;;9.30;;
10142;SDS011;5112;54.088;13.446;2024-02-28T21:21:08;13.33;;;9.20;;
10142;SDS011;5112;54.088;13.446;2024-02-28T21:31:12;13.00;;;8.70;;
10142;SDS011;5112;54.088;13.446;2024-02-28T21:41:14;11.87;;;8.63;;
10142;SDS011;5112;54.088;13.446;2024-02-28T21:51:18;11.67;;;8.40;;
10142;SDS011;5112;54.088;13.446;2024-02-28T22:01:20;11.73;;;8.33;;
10142;SDS011;5112;54.088;13.446;2024-02-28T22:11:23;10.40;;;8.23;;
10142;SDS011;5112;54.088;13.446;2024-02-28T22:21:24;10.47;;;7.90;;
10142;SDS011;5112;54.088;13.446;2024-02-28T22:31:27;10.95;;;9.73;;
10142;SDS011;5112;54.088;13.446;2024-02-28T22:41:29;9.97;;;8.37;;
10142;SDS011;5112;54.088;13.446;2024-02-28T22:51:32;10.73;;;7.70;;
10142;SDS011;5112;54.088;13.446;2024-02-28T23:01:35;9.80;;;7.63;;
10142;SDS011;5112;54.088;13.446;2024-02-28T23:11:38;10.50;;;7.73;;
10142;SDS011;5112;54.088;13.446;2024-02-28T23:21:41;11.73;;;8.47;;
10142;SDS011;5112;54.088;13.446;2024-02-28T23:31:44;10.83;;;8.17;;
10142;SDS011;5112;54.088;13.446;2024-02-28T23:41:46;10.37;;;8.00;;
10142;SDS011;5112;54.088;13.446;2024-02-28T23:51:49;12.70;;;8.20;;
